createdAt,value
2018-03-24T00:01:26.131Z,75.8
2018-03-24T00:11:28.423Z,64.4
2018-03-24T00:21:26.357Z,57.1
2018-03-24T00:31:26.180Z,56.4
2018-03-24T00:41:27.992Z,53.5
2018-03-24T00:51:27.058Z,53.0
2018-03-24T01:01:27.786Z,56.6
2018-03-24T01:11:27.538Z,54.1
2018-03-24T01:21:27.172Z,54.1
2018-03-24T01:31:27.965Z,54.3
2018-03-24T01:41:27.117Z,55.7
2018-03-24T01:51:27.106Z,56.3
2018-03-24T02:01:25.885Z,53.0
2018-03-24T02:11:26.486Z,55.3
2018-03-24T02:21:27.534Z,52.5
2018-03-24T02:31:25.876Z,55.0
2018-03-24T02:41:27.359Z,55.6
2018-03-24T02:51:26.513Z,57.0
2018-03-24T03:01:26.001Z,60.0
2018-03-24T03:11:26.393Z,60.3
2018-03-24T03:21:28.208Z,60.5
2018-03-24T03:31:28.858Z,64.8
2018-03-24T03:41:27.177Z,70.2
2018-03-24T03:51:25.742Z,72.7
2018-03-24T04:01:26.252Z,73.3
2018-03-24T04:11:27.432Z,74.7
2018-03-24T04:21:26.647Z,75.9
2018-03-24T04:31:26.418Z,71.5
2018-03-24T04:41:26.002Z,66.4
2018-03-24T04:51:26.813Z,65.4
2018-03-24T05:01:26.378Z,66.4
2018-03-24T05:11:25.892Z,65.8
2018-03-24T05:21:25.944Z,76.4
2018-03-24T05:31:26.216Z,71.7
2018-03-24T05:41:25.760Z,66.6
2018-03-24T05:51:26.512Z,67.5
2018-03-24T06:01:26.819Z,57.7
2018-03-24T06:11:26.347Z,51.9
2018-03-24T06:21:27.582Z,50.2
2018-03-24T06:31:27.557Z,60.5
2018-03-24T06:41:26.046Z,61.2
2018-03-24T06:51:28.497Z,55.6
2018-03-24T07:01:26.830Z,51.5
2018-03-24T07:11:27.773Z,49.2
2018-03-24T07:21:27.663Z,46.4
2018-03-24T07:31:26.086Z,47.8
2018-03-24T07:41:26.811Z,50.9
2018-03-24T07:51:28.858Z,47.9
2018-03-24T08:01:26.497Z,47.4
2018-03-24T08:11:31.597Z,52.4
2018-03-24T08:21:25.748Z,59.2
2018-03-24T08:31:32.003Z,47.0
2018-03-24T08:41:31.096Z,38.8
2018-03-24T08:51:32.618Z,37.3
2018-03-24T09:01:31.554Z,32.6
2018-03-24T09:11:32.217Z,40.5
2018-03-24T09:21:31.358Z,35.2
2018-03-24T09:31:26.217Z,49.6
2018-03-24T09:41:27.482Z,47.5
2018-03-24T09:51:28.367Z,50.3
2018-03-24T10:01:29.289Z,47.7
2018-03-24T10:11:25.863Z,40.5
2018-03-24T10:21:29.243Z,34.5
2018-03-24T10:31:26.192Z,26.8
2018-03-24T10:41:26.143Z,24.4
2018-03-24T10:51:25.838Z,22.7
2018-03-24T11:01:28.240Z,23.1
2018-03-24T11:11:25.823Z,25.3
2018-03-24T11:21:26.481Z,20.5
2018-03-24T11:31:26.123Z,18.7
2018-03-24T11:41:26.694Z,15.5
2018-03-24T11:51:26.002Z,14.5
2018-03-24T12:01:27.345Z,13.3
2018-03-24T12:11:26.587Z,12.4
2018-03-24T12:21:28.873Z,14.8
2018-03-24T12:31:27.227Z,13.3
2018-03-24T12:41:27.243Z,12.8
2018-03-24T12:51:25.803Z,11.1
2018-03-24T13:01:26.524Z,10.8
2018-03-24T13:11:26.807Z,10.5
2018-03-24T13:21:26.567Z,9.1
2018-03-24T13:31:26.167Z,8.4
2018-03-24T13:41:25.667Z,8.2
2018-03-24T13:51:27.818Z,6.1
2018-03-24T14:01:27.013Z,4.6
2018-03-24T14:11:26.656Z,6.0
2018-03-24T14:21:27.283Z,5.6
2018-03-24T14:31:25.813Z,6.0
2018-03-24T14:41:26.816Z,6.7
2018-03-24T14:51:26.942Z,6.9
2018-03-24T15:01:26.535Z,6.4
2018-03-24T15:11:27.212Z,6.8
2018-03-24T15:21:26.379Z,7.5
2018-03-24T15:31:25.969Z,7.9
2018-03-24T15:41:26.617Z,7.7
2018-03-24T15:51:27.239Z,7.9
2018-03-24T16:01:27.811Z,6.1
2018-03-24T16:11:26.445Z,6.2
2018-03-24T16:21:26.604Z,5.2
2018-03-24T16:31:26.300Z,6.4
2018-03-24T16:41:25.850Z,7.6
2018-03-24T16:51:26.476Z,9.5
2018-03-24T17:01:26.368Z,10.8
2018-03-24T17:11:26.836Z,10.6
2018-03-24T17:21:27.120Z,10.6
2018-03-24T17:31:25.838Z,10.9
2018-03-24T17:41:26.580Z,12.4
2018-03-24T17:51:26.153Z,13.3
2018-03-24T18:01:26.006Z,14.4
2018-03-24T18:11:26.788Z,12.6
2018-03-24T18:21:27.150Z,12.9
2018-03-24T18:31:26.022Z,15.0
2018-03-24T18:41:26.563Z,17.0
2018-03-24T18:51:27.990Z,24.0
2018-03-24T19:01:27.240Z,26.5
2018-03-24T19:11:28.247Z,27.4
2018-03-24T19:21:29.748Z,24.1
2018-03-24T19:31:32.078Z,24.5
2018-03-24T19:41:27.762Z,24.9
2018-03-24T19:51:26.771Z,30.5
2018-03-24T20:01:32.338Z,30.2
2018-03-24T20:11:33.615Z,27.4
2018-03-24T20:21:34.600Z,29.0
2018-03-24T20:31:31.167Z,29.8
2018-03-24T20:41:32.955Z,31.9
2018-03-24T20:51:32.395Z,32.5
2018-03-24T21:01:33.322Z,34.9
2018-03-24T21:11:31.567Z,34.6
2018-03-24T21:21:26.738Z,33.9
2018-03-24T21:31:28.840Z,33.3
2018-03-24T21:41:32.459Z,33.8
2018-03-24T21:51:28.610Z,34.9
2018-03-24T22:01:29.378Z,35.2
2018-03-24T22:11:25.823Z,35.0
2018-03-24T22:21:33.169Z,37.3
2018-03-24T22:31:31.435Z,38.1
2018-03-24T22:42:16.598Z,41.6
2018-03-24T22:51:31.463Z,40.7
2018-03-24T23:01:25.989Z,45.0
2018-03-24T23:11:26.690Z,43.5
2018-03-24T23:21:26.711Z,45.7
2018-03-24T23:31:27.457Z,47.2
2018-03-24T23:41:26.360Z,46.5
2018-03-24T23:51:29.091Z,44.8
